Main page
METAR-TAF:

METAR-TAF

Airports :

Boone Municipal Airport

Boone, Iowa, United States

latitude: 42-03N, longitude: 093-51W, elevation: 1161 ft

Current weather observation

The report was made 13 minutes ago, at 19:15 UTC
Wind 20 mph from the West/Northwest
Temperature 23°F
Humidity 30%
Pressure 30.24 in. Hg
Visibility: 10 miles
Clear sky

METAR: KBNW 281915Z AUTO 29017KT 10SM CLR M05/M20 A3024 RMK AO2

Time: 13:28 (19:28 UTC)


TAF: missing

Weather observations and forecasts of more than 4000 airports (METAR and TAF reports).

The available stations are represented by yellow and red dots on the map.

Hover mouse over dot to see the name of the station.

Then click to see weather observations and forecasts.

To change the map : click on the green buttons with a black cross to zoom in, on the green button with a dash to zoom out, or on the green arrows for adjacent maps.


METAR-TAF: